CFB Trenton

Airport
ICAO code: 
CYTR
Summary
ICAO Region: 
NAM
Territory: 
Location: 
Trenton, Ontario,
Coordinates: 
Aerial View: 
44° 7' 8" N, 77° 31' 40.991" W
Airport WX: 
Lake Effect Snow
Metar
Observation
CYTR 072100Z 32004KT 300V010 15SM BKN047 M03/M12 A3017 RMK SC7 SLP223
Station
Trenton, Ont.
Date/Time
2021-12-07 21:00:00
Wind direction
320°
Wind speed
04 kts
Lowest cloud amount
broken clouds
Temperature
-3°C
Dew point
-12°C
Humidity
49%
Weather condition
n/a

Description

Canadian Forces Base Trenton (also CFB Trenton), is a Canadian Forces base located 2.3 nm northeast of Trenton, Ontario. It is operated as an air force base by Canadian Forces Air Command (AIRCOM) and is the hub for air transport operations in Canada and abroad.

Climatology

Humid continental climate (Köppen climate classification Dfa) - characterized by four seasons: cold, windy, snowy winters, mild springs, hot, humid summers, and crisp and relatively short autumns. Precipitation reaches its lowest in January and February and peaks in summer and latter half of spring.

Runways

Designator Length Width Surface Rops
13/31 922 46 ASP No/No
6/24 3048 61 ASP No/No
Airport map: 
Aerial View: 

SKYbrary Partners:

Safety knowledge contributed by: